createdAt,value
2018-07-09T00:01:14.784Z,80.86
2018-07-09T00:03:49.274Z,80.83
2018-07-09T00:06:23.239Z,80.82
2018-07-09T00:08:57.232Z,80.18
2018-07-09T00:11:31.355Z,79.07
2018-07-09T00:14:05.389Z,78.95
2018-07-09T00:16:39.637Z,78.84
2018-07-09T00:19:13.955Z,78.61
2018-07-09T00:21:47.843Z,78.58
2018-07-09T00:24:21.974Z,78.54
2018-07-09T00:26:56.088Z,78.15
2018-07-09T00:29:30.353Z,77.44
2018-07-09T00:32:04.344Z,77.43
2018-07-09T00:34:38.637Z,78.37
2018-07-09T00:37:12.773Z,77.34
2018-07-09T00:39:46.952Z,77.56
2018-07-09T00:42:21.224Z,78.08
2018-07-09T00:44:55.904Z,78.82
2018-07-09T00:47:30.065Z,79.15
2018-07-09T00:50:04.231Z,80.08
2018-07-09T00:52:38.363Z,80.37
2018-07-09T00:55:12.433Z,80.81
2018-07-09T00:57:46.412Z,80.47
2018-07-09T01:00:20.369Z,80.70
2018-07-09T01:02:54.268Z,80.74
2018-07-09T01:05:28.541Z,80.76
2018-07-09T01:08:02.642Z,82.12
2018-07-09T01:10:47.649Z,82.27
2018-07-09T01:13:31.317Z,83.19
2018-07-09T01:16:05.771Z,83.13
2018-07-09T01:18:39.946Z,83.11
2018-07-09T01:21:14.830Z,83.34
2018-07-09T01:23:48.816Z,81.99
2018-07-09T01:26:22.871Z,83.08
2018-07-09T01:28:56.918Z,83.60
2018-07-09T01:31:36.139Z,83.48
2018-07-09T01:34:10.245Z,84.51
2018-07-09T01:36:44.165Z,84.40
2018-07-09T01:39:18.076Z,84.73
2018-07-09T01:41:52.176Z,84.59
2018-07-09T01:44:26.120Z,84.33
2018-07-09T01:47:00.174Z,85.58
2018-07-09T01:49:34.301Z,84.78
2018-07-09T01:52:08.279Z,85.17
2018-07-09T01:54:42.376Z,85.73
2018-07-09T01:57:16.316Z,85.20
2018-07-09T01:59:50.182Z,84.73
2018-07-09T02:02:24.335Z,85.06
2018-07-09T02:04:58.365Z,84.74
2018-07-09T02:07:32.495Z,84.75
2018-07-09T02:10:07.314Z,83.48
2018-07-09T02:12:41.528Z,84.51
2018-07-09T02:15:15.482Z,83.71
2018-07-09T02:17:49.700Z,83.70
2018-07-09T02:20:23.755Z,82.71
2018-07-09T02:22:58.013Z,83.10
2018-07-09T02:25:31.935Z,82.73
2018-07-09T02:28:06.082Z,80.29
2018-07-09T02:30:40.205Z,81.37
2018-07-09T02:33:14.265Z,79.97
2018-07-09T02:35:48.292Z,80.24
2018-07-09T02:38:22.445Z,79.57
2018-07-09T02:40:56.573Z,79.44
2018-07-09T02:43:30.625Z,81.18
2018-07-09T02:46:04.695Z,81.31
2018-07-09T02:48:38.774Z,81.48
2018-07-09T02:51:12.761Z,82.12
2018-07-09T02:53:46.898Z,82.18
2018-07-09T02:56:20.821Z,82.18
2018-07-09T02:58:54.979Z,82.95
2018-07-09T03:01:28.989Z,81.94
2018-07-09T03:04:03.036Z,82.58
2018-07-09T03:06:37.088Z,82.29
2018-07-09T03:09:11.452Z,82.71
2018-07-09T03:11:45.380Z,82.67
2018-07-09T03:14:19.423Z,82.64
2018-07-09T03:16:53.391Z,82.07
2018-07-09T03:19:27.363Z,82.61
2018-07-09T03:22:01.228Z,83.37
2018-07-09T03:24:35.305Z,83.19
2018-07-09T03:27:09.212Z,82.88
2018-07-09T03:29:43.235Z,80.79
2018-07-09T03:32:17.098Z,82.79
2018-07-09T03:34:51.082Z,82.57
2018-07-09T03:37:25.048Z,82.27
2018-07-09T03:39:59.111Z,82.32
2018-07-09T03:42:33.017Z,80.84
2018-07-09T03:45:07.139Z,82.49
2018-07-09T03:47:41.118Z,82.41
2018-07-09T03:50:15.331Z,83.63
2018-07-09T03:52:49.448Z,83.41
2018-07-09T03:55:23.884Z,83.43
2018-07-09T03:57:57.859Z,84.00
2018-07-09T04:00:31.930Z,84.01
2018-07-09T04:03:05.824Z,83.83
2018-07-09T04:05:39.856Z,83.64
2018-07-09T04:08:13.879Z,84.04
2018-07-09T04:10:47.848Z,83.73
2018-07-09T04:13:21.934Z,82.26
2018-07-09T04:15:55.888Z,83.44
2018-07-09T04:18:29.744Z,83.93
2018-07-09T04:21:03.898Z,83.82
2018-07-09T04:23:37.895Z,83.78
2018-07-09T04:26:11.925Z,82.27
2018-07-09T04:28:45.767Z,81.21
2018-07-09T04:31:19.909Z,81.24
2018-07-09T04:33:53.760Z,80.80
2018-07-09T04:36:27.719Z,79.09
2018-07-09T04:39:02.138Z,78.71
2018-07-09T04:41:36.516Z,77.27
2018-07-09T04:44:10.398Z,76.07
2018-07-09T04:46:44.329Z,72.92
2018-07-09T04:49:18.419Z,74.21
2018-07-09T04:51:52.326Z,74.58
2018-07-09T04:54:26.553Z,72.93
2018-07-09T04:57:00.652Z,72.58
2018-07-09T04:59:34.775Z,72.07
2018-07-09T05:02:08.679Z,71.62
2018-07-09T05:04:42.598Z,73.67
2018-07-09T05:28:14.326Z,69.92
2018-07-09T05:30:48.118Z,68.81
2018-07-09T05:33:22.261Z,69.61
2018-07-09T05:35:56.121Z,68.65
2018-07-09T05:38:30.221Z,68.40
2018-07-09T05:41:04.253Z,67.66
2018-07-09T05:43:38.680Z,66.09
2018-07-09T05:46:12.788Z,65.83
2018-07-09T05:48:46.792Z,64.45
2018-07-09T05:51:20.670Z,63.70
2018-07-09T05:53:54.696Z,65.53
2018-07-09T05:56:29.206Z,64.13
2018-07-09T05:59:03.140Z,63.76
2018-07-09T06:01:37.171Z,63.91
2018-07-09T06:04:11.194Z,63.61
2018-07-09T06:06:45.032Z,64.31
2018-07-09T06:09:18.909Z,62.70
2018-07-09T06:11:52.734Z,62.83
2018-07-09T06:14:26.601Z,63.76
2018-07-09T06:17:00.330Z,64.00
2018-07-09T06:19:34.347Z,64.40
2018-07-09T06:22:08.153Z,64.31
2018-07-09T06:24:42.037Z,64.53
2018-07-09T06:27:15.912Z,64.56
2018-07-09T06:29:49.876Z,62.55
2018-07-09T06:32:23.815Z,62.09
2018-07-09T06:34:57.792Z,62.42
2018-07-09T06:37:31.931Z,62.17
2018-07-09T06:39:59.923Z,61.79
2018-07-09T06:42:27.788Z,60.47
2018-07-09T06:44:55.728Z,60.13
2018-07-09T06:47:23.747Z,58.58
2018-07-09T06:49:51.610Z,58.41
2018-07-09T06:52:19.595Z,58.07
2018-07-09T06:54:47.483Z,59.43
2018-07-09T06:57:15.414Z,58.46
2018-07-09T06:59:43.376Z,57.97
2018-07-09T07:02:11.345Z,58.50
2018-07-09T07:04:39.343Z,57.43
2018-07-09T07:07:07.249Z,57.96
2018-07-09T07:09:35.169Z,57.67
2018-07-09T07:12:03.032Z,55.90
2018-07-09T07:14:30.931Z,56.87
2018-07-09T07:16:58.754Z,56.29
2018-07-09T07:19:26.560Z,55.87
2018-07-09T07:21:54.997Z,54.91
2018-07-09T07:24:22.848Z,55.31
2018-07-09T07:26:50.737Z,55.21
2018-07-09T07:29:18.573Z,53.67
2018-07-09T07:31:46.483Z,53.30
2018-07-09T07:34:14.318Z,52.45
2018-07-09T07:36:42.135Z,53.38
2018-07-09T07:39:10.021Z,51.81
2018-07-09T07:41:37.981Z,51.81
2018-07-09T07:44:05.856Z,52.08
2018-07-09T07:46:33.725Z,51.45
2018-07-09T07:49:01.603Z,52.02
2018-07-09T07:51:29.461Z,51.96
2018-07-09T07:53:57.350Z,51.85
2018-07-09T07:56:25.188Z,51.67
2018-07-09T07:58:53.182Z,53.28
2018-07-09T08:01:21.177Z,53.22
2018-07-09T08:03:49.412Z,53.41
2018-07-09T08:06:17.330Z,52.80
2018-07-09T08:08:45.166Z,51.77
2018-07-09T08:11:13.153Z,52.44
2018-07-09T08:13:41.046Z,51.98
2018-07-09T08:16:08.993Z,51.26
2018-07-09T08:18:36.906Z,50.72
2018-07-09T08:21:04.867Z,50.06
2018-07-09T08:23:32.711Z,51.42
2018-07-09T08:26:00.636Z,49.21
2018-07-09T08:28:28.468Z,50.71
2018-07-09T08:30:56.393Z,49.40
2018-07-09T08:33:24.292Z,47.58
2018-07-09T08:35:52.108Z,48.55
2018-07-09T08:38:20.074Z,46.68
2018-07-09T08:40:47.958Z,47.64
2018-07-09T08:43:16.019Z,47.35
2018-07-09T08:45:43.983Z,49.15
2018-07-09T08:48:11.797Z,51.43
2018-07-09T08:50:39.661Z,51.88
2018-07-09T08:53:07.635Z,50.86
2018-07-09T08:55:35.938Z,51.92
2018-07-09T08:58:03.844Z,50.55
2018-07-09T09:00:31.895Z,51.48
2018-07-09T09:02:59.728Z,50.43
2018-07-09T09:05:27.828Z,49.19
2018-07-09T09:07:55.707Z,49.96
2018-07-09T09:10:23.538Z,50.21
2018-07-09T09:12:51.398Z,49.05
2018-07-09T09:15:19.399Z,50.57
2018-07-09T09:17:47.618Z,48.83
2018-07-09T09:20:15.422Z,48.98
2018-07-09T09:22:43.497Z,47.03
2018-07-09T09:25:11.326Z,48.32
2018-07-09T09:27:39.183Z,49.12
2018-07-09T09:30:07.147Z,48.13
2018-07-09T09:32:35.036Z,48.21
2018-07-09T09:35:03.131Z,47.36
2018-07-09T09:37:31.199Z,48.38
2018-07-09T09:39:59.052Z,49.34
2018-07-09T09:42:26.909Z,49.20
2018-07-09T09:44:54.832Z,49.32
2018-07-09T09:47:22.674Z,48.35
2018-07-09T09:49:50.565Z,48.91
2018-07-09T09:52:18.565Z,48.24
2018-07-09T09:54:46.838Z,47.20
2018-07-09T09:57:14.706Z,47.74
2018-07-09T09:59:42.672Z,47.30
2018-07-09T10:02:12.514Z,47.59
2018-07-09T10:07:07.652Z,47.93
2018-07-09T10:09:35.584Z,46.48
2018-07-09T10:12:03.742Z,45.68
2018-07-09T10:14:31.637Z,46.73
2018-07-09T10:16:59.624Z,44.79
2018-07-09T10:19:27.493Z,46.06
2018-07-09T10:21:55.393Z,46.70
2018-07-09T10:24:23.353Z,45.97
2018-07-09T10:26:51.264Z,45.34
2018-07-09T10:29:19.233Z,44.08
2018-07-09T10:31:47.188Z,45.22
2018-07-09T10:34:15.069Z,45.85
2018-07-09T10:36:42.981Z,46.44
2018-07-09T10:39:10.856Z,45.12
2018-07-09T10:41:38.933Z,47.03
2018-07-09T10:44:06.797Z,44.42
2018-07-09T10:46:34.656Z,45.29
2018-07-09T10:49:02.516Z,45.14
2018-07-09T10:51:30.419Z,46.36
2018-07-09T10:53:58.375Z,45.42
2018-07-09T10:56:26.217Z,45.36
2018-07-09T10:58:54.106Z,46.49
2018-07-09T11:01:21.993Z,46.17
2018-07-09T11:05:14.442Z,44.00
2018-07-09T11:07:42.286Z,45.91
2018-07-09T11:10:10.334Z,45.14
2018-07-09T11:12:38.282Z,47.63
2018-07-09T11:15:06.244Z,49.47
2018-07-09T11:17:34.101Z,49.20
2018-07-09T11:20:02.023Z,46.37
2018-07-09T11:22:29.912Z,46.65
2018-07-09T11:24:57.902Z,46.36
2018-07-09T11:27:25.764Z,46.56
2018-07-09T11:29:53.640Z,47.38
2018-07-09T11:32:21.497Z,45.92
2018-07-09T11:34:49.488Z,46.24
2018-07-09T11:37:17.356Z,48.08
2018-07-09T11:39:45.171Z,46.96
2018-07-09T11:42:13.050Z,43.75
2018-07-09T11:44:40.903Z,46.04
2018-07-09T11:47:08.986Z,45.43
2018-07-09T11:49:36.887Z,44.68
2018-07-09T11:52:05.004Z,46.34
2018-07-09T11:54:32.874Z,43.23
2018-07-09T11:57:00.811Z,39.87
2018-07-09T11:59:28.693Z,38.31
2018-07-09T12:01:56.684Z,39.24
2018-07-09T12:04:24.615Z,40.52
2018-07-09T12:06:52.446Z,40.32
2018-07-09T12:09:20.333Z,39.49
2018-07-09T12:11:54.297Z,38.49
2018-07-09T12:14:22.156Z,36.99
2018-07-09T12:16:50.061Z,35.94
2018-07-09T12:19:18.010Z,36.51
2018-07-09T12:21:46.114Z,36.65
2018-07-09T12:24:13.874Z,38.49
2018-07-09T12:26:41.740Z,36.75
2018-07-09T12:29:09.704Z,37.31
2018-07-09T12:31:37.536Z,37.84
2018-07-09T12:34:05.504Z,37.82
2018-07-09T12:36:33.412Z,35.36
2018-07-09T12:39:01.253Z,33.29
2018-07-09T12:41:29.208Z,36.97
2018-07-09T12:43:57.049Z,36.87
2018-07-09T12:46:25.030Z,37.17
2018-07-09T12:48:52.955Z,37.13
2018-07-09T12:51:20.821Z,37.50
2018-07-09T12:53:48.672Z,36.13
2018-07-09T12:56:16.696Z,37.00
2018-07-09T12:58:44.549Z,38.06
2018-07-09T13:01:12.416Z,38.88
2018-07-09T13:03:40.318Z,39.62
2018-07-09T13:06:08.254Z,39.46
2018-07-09T13:08:36.086Z,42.46
2018-07-09T13:11:03.962Z,44.84
2018-07-09T13:13:31.803Z,46.57
2018-07-09T13:15:59.631Z,47.17
2018-07-09T13:18:27.570Z,48.00
2018-07-09T13:20:55.649Z,47.96
2018-07-09T13:23:23.495Z,45.86
2018-07-09T13:25:51.486Z,44.92
2018-07-09T13:28:19.498Z,47.76
2018-07-09T13:30:47.481Z,54.53
2018-07-09T13:33:15.480Z,64.01
2018-07-09T13:35:43.470Z,65.20
2018-07-09T13:38:11.344Z,70.07
2018-07-09T13:40:39.286Z,68.42
2018-07-09T13:43:07.152Z,68.18
2018-07-09T13:45:35.248Z,73.94
2018-07-09T13:48:03.468Z,68.71
2018-07-09T13:50:31.901Z,71.81
2018-07-09T13:52:59.886Z,72.07
2018-07-09T13:55:28.215Z,77.47
2018-07-09T13:57:56.173Z,77.88
2018-07-09T14:00:24.157Z,79.71
2018-07-09T14:02:52.310Z,74.70
2018-07-09T14:05:20.153Z,74.64
2018-07-09T14:07:48.164Z,74.00
2018-07-09T14:10:16.179Z,74.46
2018-07-09T14:12:44.015Z,74.77
2018-07-09T14:15:12.009Z,70.70
2018-07-09T14:17:40.364Z,70.71
2018-07-09T14:20:21.508Z,71.90
2018-07-09T14:22:49.587Z,73.35
2018-07-09T14:25:17.934Z,71.61
2018-07-09T14:27:45.764Z,71.07
2018-07-09T14:30:13.853Z,66.79
2018-07-09T14:32:42.048Z,64.16
2018-07-09T14:35:09.890Z,67.63
2018-07-09T14:37:37.762Z,68.75
2018-07-09T14:40:05.789Z,68.91
2018-07-09T14:42:33.940Z,71.38
2018-07-09T14:45:02.117Z,70.59
2018-07-09T14:47:30.291Z,69.12
2018-07-09T14:49:58.147Z,70.78
2018-07-09T14:52:26.219Z,66.90
2018-07-09T14:54:54.045Z,66.41
2018-07-09T14:57:21.897Z,65.76
2018-07-09T14:59:49.779Z,71.90
2018-07-09T15:02:17.863Z,74.69
2018-07-09T15:04:45.843Z,73.25
2018-07-09T15:07:13.705Z,76.54
2018-07-09T15:09:41.701Z,76.64
2018-07-09T15:12:09.500Z,74.68
2018-07-09T15:14:37.440Z,75.80
2018-07-09T15:17:05.536Z,76.86
2018-07-09T15:19:33.382Z,78.07
2018-07-09T15:22:01.321Z,77.46
2018-07-09T15:24:29.199Z,76.68
2018-07-09T15:26:57.025Z,75.89
2018-07-09T15:29:25.039Z,78.47
2018-07-09T15:32:04.109Z,77.58
2018-07-09T15:34:32.040Z,73.86
2018-07-09T15:36:59.891Z,73.12
2018-07-09T15:39:27.773Z,71.93
2018-07-09T15:41:55.651Z,72.89
2018-07-09T15:44:23.509Z,74.73
2018-07-09T15:46:51.362Z,75.40
2018-07-09T15:49:19.237Z,76.65
2018-07-09T15:51:47.641Z,77.32
2018-07-09T15:54:15.642Z,76.37
2018-07-09T15:56:43.564Z,78.59
2018-07-09T15:59:11.528Z,77.66
2018-07-09T16:01:39.552Z,78.27
2018-07-09T16:04:07.612Z,79.25
2018-07-09T16:06:35.488Z,81.01
2018-07-09T16:09:04.489Z,81.31
2018-07-09T16:11:32.614Z,80.92
2018-07-09T16:14:00.615Z,79.82
2018-07-09T16:16:28.440Z,79.14
2018-07-09T16:18:56.391Z,80.64
2018-07-09T16:21:24.300Z,79.45
2018-07-09T16:23:52.276Z,79.75
2018-07-09T16:26:20.181Z,79.33
2018-07-09T16:28:48.366Z,78.75
2018-07-09T16:31:16.224Z,78.75
2018-07-09T16:33:44.133Z,77.07
2018-07-09T16:36:12.177Z,76.32
2018-07-09T16:38:40.072Z,77.59
2018-07-09T16:41:08.284Z,77.16
2018-07-09T16:43:36.435Z,78.44
2018-07-09T16:46:04.309Z,78.23
2018-07-09T16:48:32.176Z,80.65
2018-07-09T16:51:00.051Z,82.09
2018-07-09T16:53:27.907Z,83.37
2018-07-09T16:55:55.936Z,85.94
2018-07-09T16:58:23.767Z,86.25
2018-07-09T17:00:51.734Z,84.36
2018-07-09T17:03:19.763Z,83.53
2018-07-09T17:05:47.750Z,84.93
2018-07-09T17:08:15.835Z,82.05
2018-07-09T17:10:43.748Z,79.72
2018-07-09T17:13:12.052Z,82.40
2018-07-09T17:15:40.056Z,83.46
2018-07-09T17:18:08.540Z,86.03
2018-07-09T17:20:36.695Z,85.96
2018-07-09T17:23:04.845Z,85.68
2018-07-09T17:25:32.877Z,82.94
2018-07-09T17:28:00.852Z,84.46
2018-07-09T17:30:28.743Z,83.38
2018-07-09T17:32:56.972Z,85.92
2018-07-09T17:35:24.887Z,86.36
2018-07-09T17:37:53.132Z,86.23
2018-07-09T17:40:21.175Z,85.17
2018-07-09T17:42:49.332Z,84.70
2018-07-09T17:45:18.664Z,85.26
2018-07-09T17:47:47.619Z,84.74
2018-07-09T17:50:16.553Z,84.36
2018-07-09T17:52:44.411Z,86.79
2018-07-09T17:55:12.672Z,87.75
2018-07-09T17:57:41.113Z,86.29
2018-07-09T18:00:09.072Z,88.94
2018-07-09T18:02:43.359Z,85.87
2018-07-09T18:05:11.301Z,86.19
2018-07-09T18:07:39.472Z,85.03
2018-07-09T18:10:08.125Z,84.64
2018-07-09T18:12:36.127Z,87.08
2018-07-09T18:15:04.564Z,86.64
2018-07-09T18:17:32.672Z,86.57
2018-07-09T18:20:00.572Z,89.58
2018-07-09T18:22:31.934Z,90.17
2018-07-09T18:24:59.928Z,89.01
2018-07-09T18:27:28.006Z,89.99
2018-07-09T18:29:56.176Z,89.48
2018-07-09T18:32:24.242Z,89.38
2018-07-09T18:34:52.664Z,90.33
2018-07-09T18:37:20.618Z,88.96
2018-07-09T18:39:48.679Z,89.26
2018-07-09T18:42:16.644Z,89.29
2018-07-09T18:44:44.562Z,90.38
2018-07-09T18:47:12.545Z,90.44
2018-07-09T18:49:40.663Z,91.85
2018-07-09T18:52:08.745Z,92.30
2018-07-09T18:54:36.958Z,94.80
2018-07-09T18:57:05.826Z,93.13
2018-07-09T18:59:36.560Z,92.82
2018-07-09T19:02:05.302Z,91.89
2018-07-09T19:04:35.698Z,92.16
2018-07-09T19:07:08.532Z,92.24
2018-07-09T19:09:37.064Z,91.72
2018-07-09T19:12:06.891Z,91.84
2018-07-09T19:14:39.861Z,89.57
2018-07-09T19:18:25.405Z,92.32
2018-07-09T19:21:38.414Z,91.60
2018-07-09T19:24:06.344Z,90.31
2018-07-09T19:26:33.229Z,91.28
2018-07-09T19:28:59.839Z,91.50
2018-07-09T19:31:26.464Z,91.62
2018-07-09T19:33:53.826Z,92.32
2018-07-09T19:36:20.911Z,91.34
2018-07-09T19:38:47.637Z,90.95
2018-07-09T19:41:15.239Z,92.92
2018-07-09T19:43:42.403Z,92.88
2018-07-09T19:46:08.967Z,94.09
2018-07-09T19:48:35.602Z,95.30
2018-07-09T19:51:02.293Z,95.29
2018-07-09T19:53:28.908Z,95.23
2018-07-09T19:55:55.562Z,93.96
2018-07-09T19:58:22.264Z,92.47
2018-07-09T20:00:54.981Z,92.63
2018-07-09T20:03:27.646Z,93.42
2018-07-09T20:06:00.230Z,93.20
2018-07-09T20:08:38.137Z,92.60
2018-07-09T20:11:16.204Z,92.14
2018-07-09T20:14:07.248Z,92.10
2018-07-09T20:16:45.380Z,91.98
2018-07-09T20:19:18.225Z,92.98
2018-07-09T20:21:50.952Z,93.98
2018-07-09T20:24:23.673Z,94.52
2018-07-09T20:26:56.290Z,93.60
2018-07-09T20:29:29.016Z,92.54
2018-07-09T20:32:01.732Z,91.81
2018-07-09T20:34:34.366Z,92.42
2018-07-09T20:37:07.074Z,90.45
2018-07-09T20:39:39.736Z,91.48
2018-07-09T20:42:12.414Z,90.07
2018-07-09T20:44:45.193Z,89.93
2018-07-09T20:47:17.809Z,90.92
2018-07-09T20:49:50.396Z,89.62
2018-07-09T20:52:23.004Z,90.58
2018-07-09T20:54:55.621Z,91.58
2018-07-09T20:57:28.140Z,90.46
2018-07-09T21:00:00.937Z,90.25
2018-07-09T21:02:33.515Z,90.12
2018-07-09T21:05:06.116Z,92.52
2018-07-09T21:07:38.819Z,93.18
2018-07-09T21:10:11.401Z,92.55
2018-07-09T21:12:49.607Z,92.87
2018-07-09T21:15:22.910Z,92.89
2018-07-09T21:17:55.460Z,92.87
2018-07-09T21:20:28.227Z,93.15
2018-07-09T21:23:00.812Z,89.15
2018-07-09T21:25:33.433Z,90.80
2018-07-09T21:28:06.145Z,91.38
2018-07-09T21:30:38.875Z,90.96
2018-07-09T21:33:11.548Z,91.60
2018-07-09T21:35:44.174Z,89.64
2018-07-09T21:38:16.842Z,92.67
2018-07-09T21:40:49.414Z,92.66
2018-07-09T21:43:22.056Z,90.63
2018-07-09T21:45:54.884Z,90.56
2018-07-09T21:48:29.779Z,91.42
2018-07-09T21:51:00.658Z,91.20
2018-07-09T21:53:33.435Z,92.48
2018-07-09T21:56:06.001Z,91.64
2018-07-09T21:58:38.553Z,90.45
2018-07-09T22:01:11.260Z,91.27
2018-07-09T22:03:43.944Z,93.34
2018-07-09T22:06:16.662Z,92.55
2018-07-09T22:08:49.208Z,92.61
2018-07-09T22:11:21.767Z,92.04
2018-07-09T22:13:54.343Z,91.76
2018-07-09T22:16:27.071Z,93.49
2018-07-09T22:18:59.687Z,93.81
2018-07-09T22:21:32.416Z,93.83
2018-07-09T22:24:05.077Z,94.20
2018-07-09T22:26:37.746Z,93.75
2018-07-09T22:29:10.232Z,93.09
2018-07-09T22:31:44.225Z,92.17
2018-07-09T22:34:18.128Z,92.89
2018-07-09T22:36:52.190Z,93.35
2018-07-09T22:39:26.172Z,93.39
2018-07-09T22:42:00.554Z,92.62
2018-07-09T22:44:34.360Z,93.07
2018-07-09T22:47:08.416Z,92.87
2018-07-09T22:49:42.804Z,92.52
2018-07-09T22:52:21.864Z,92.70
2018-07-09T22:55:06.849Z,93.31
2018-07-09T22:57:40.772Z,92.81
2018-07-09T23:00:16.510Z,92.74
2018-07-09T23:03:01.393Z,92.50
2018-07-09T23:05:35.355Z,93.30
2018-07-09T23:08:09.604Z,93.15
2018-07-09T23:13:20.121Z,93.33
2018-07-09T23:17:02.161Z,93.39
2018-07-09T23:21:50.679Z,93.41
2018-07-09T23:24:24.033Z,92.91
2018-07-09T23:26:57.061Z,93.40
2018-07-09T23:29:29.629Z,93.35
2018-07-09T23:32:02.310Z,92.78
2018-07-09T23:34:34.956Z,92.88
2018-07-09T23:37:07.685Z,92.86
2018-07-09T23:39:40.258Z,92.54
2018-07-09T23:42:13.011Z,93.03
2018-07-09T23:44:45.519Z,93.13
2018-07-09T23:47:18.118Z,92.67
2018-07-09T23:49:50.893Z,92.16
2018-07-09T23:52:23.562Z,92.70
2018-07-09T23:54:56.160Z,92.54
2018-07-09T23:59:47.887Z,92.03
